createdAt,value
2022-10-14T00:03:23.016Z,11.30
2022-10-14T00:08:26.946Z,11.30
2022-10-14T00:13:30.089Z,11.20
2022-10-14T00:18:34.960Z,11.20
2022-10-14T00:23:38.592Z,11.20
2022-10-14T00:28:41.933Z,11.30
2022-10-14T00:33:47.079Z,11.40
2022-10-14T00:38:50.896Z,11.30
2022-10-14T00:43:58.579Z,11.30
2022-10-14T00:49:06.369Z,11.30
2022-10-14T00:54:10.795Z,11.30
2022-10-14T00:59:14.303Z,11.40
2022-10-14T01:04:18.958Z,11.40
2022-10-14T01:09:27.944Z,11.30
2022-10-14T01:14:39.500Z,11.30
2022-10-14T01:20:17.530Z,11.30
2022-10-14T01:25:26.622Z,11.30
2022-10-14T01:30:37.776Z,11.40
2022-10-14T01:35:51.416Z,11.40
2022-10-14T01:40:59.834Z,11.40
2022-10-14T01:46:08.176Z,11.40
2022-10-14T01:51:16.755Z,11.40
2022-10-14T01:56:20.682Z,11.50
2022-10-14T02:01:25.677Z,11.50
2022-10-14T02:06:34.983Z,11.50
2022-10-14T02:11:47.082Z,11.50
2022-10-14T02:17:01.389Z,11.50
2022-10-14T02:22:10.038Z,11.50
2022-10-14T02:27:15.945Z,11.50
2022-10-14T02:37:51.110Z,11.50
2022-10-14T02:42:54.378Z,11.50
2022-10-14T02:47:58.991Z,11.50
2022-10-14T02:53:02.413Z,11.50
2022-10-14T02:58:05.651Z,11.40
2022-10-14T03:03:10.332Z,11.50
2022-10-14T03:08:13.554Z,11.40
2022-10-14T03:13:17.080Z,11.30
2022-10-14T03:18:22.713Z,11.30
2022-10-14T03:23:26.111Z,11.30
2022-10-14T03:28:29.339Z,11.30
2022-10-14T03:33:34.093Z,11.30
2022-10-14T03:38:37.350Z,11.20
2022-10-14T03:43:43.634Z,11.20
2022-10-14T03:48:48.313Z,11.10
2022-10-14T03:53:51.628Z,11.10
2022-10-14T03:58:58.857Z,11.10
2022-10-14T04:04:03.524Z,11.10
2022-10-14T04:09:07.130Z,11.10
2022-10-14T04:14:10.537Z,11.10
2022-10-14T04:19:15.131Z,11.10
2022-10-14T04:24:18.412Z,11.10
2022-10-14T04:29:21.735Z,11.00
2022-10-14T04:34:26.490Z,11.00
2022-10-14T04:44:57.483Z,11.00
2022-10-14T04:50:02.205Z,10.90
2022-10-14T04:55:08.036Z,11.00
2022-10-14T05:00:13.227Z,10.90
2022-10-14T05:05:20.501Z,11.00
2022-10-14T05:10:23.833Z,11.00
2022-10-14T05:15:27.166Z,11.00
2022-10-14T05:20:32.087Z,11.00
2022-10-14T05:25:35.592Z,11.00
2022-10-14T05:30:38.885Z,11.00
2022-10-14T05:35:58.488Z,10.90
2022-10-14T05:41:03.021Z,10.90
2022-10-14T05:46:06.818Z,10.80
2022-10-14T05:51:13.024Z,10.70
2022-10-14T05:56:16.760Z,10.70
2022-10-14T06:06:50.042Z,10.90
2022-10-14T06:11:53.492Z,11.00
2022-10-14T06:16:56.864Z,11.10
2022-10-14T06:22:01.500Z,11.20
2022-10-14T06:27:05.952Z,11.30
2022-10-14T06:32:10.835Z,11.40
2022-10-14T06:37:15.435Z,11.60
2022-10-14T06:42:18.684Z,11.70
2022-10-14T06:47:22.115Z,11.90
2022-10-14T06:52:26.966Z,12.10
2022-10-14T06:57:30.178Z,12.40
2022-10-14T07:02:33.735Z,12.60
2022-10-14T07:07:38.376Z,12.80
2022-10-14T07:12:41.655Z,12.80
2022-10-14T07:17:51.978Z,12.90
2022-10-14T07:23:01.874Z,13.00
2022-10-14T07:28:05.674Z,13.40
2022-10-14T07:33:08.933Z,13.70
2022-10-14T07:38:13.668Z,13.80
2022-10-14T07:43:16.987Z,13.90
2022-10-14T07:53:50.295Z,14.10
2022-10-14T07:58:54.032Z,14.10
2022-10-14T08:03:57.866Z,14.30
2022-10-14T08:09:02.545Z,14.70
2022-10-14T08:14:06.662Z,15.10
2022-10-14T08:19:14.637Z,15.30
2022-10-14T08:24:19.495Z,15.50
2022-10-14T08:29:23.682Z,15.70
2022-10-14T08:34:28.022Z,15.80
2022-10-14T08:39:32.705Z,16.10
2022-10-14T08:44:43.224Z,17.10
2022-10-14T08:50:04.068Z,17.90
2022-10-14T08:55:21.833Z,18.00
2022-10-14T09:00:25.235Z,17.60
2022-10-14T09:05:29.686Z,17.60
2022-10-14T09:10:39.082Z,17.60
2022-10-14T09:15:45.356Z,17.50
2022-10-14T09:20:49.544Z,17.40
2022-10-14T09:26:10.324Z,17.70
2022-10-14T09:31:15.031Z,18.10
2022-10-14T09:36:20.520Z,18.20
2022-10-14T09:41:30.037Z,17.90
2022-10-14T09:46:33.466Z,18.20
2022-10-14T09:51:36.787Z,18.30
2022-10-14T09:56:42.679Z,18.50
2022-10-14T10:01:51.405Z,18.80
2022-10-14T10:06:59.199Z,18.80
2022-10-14T10:12:23.950Z,18.80
2022-10-14T10:17:29.331Z,18.40
2022-10-14T10:22:36.802Z,18.40
2022-10-14T10:27:42.485Z,18.30
2022-10-14T10:32:52.752Z,18.20
2022-10-14T10:38:06.854Z,18.20
2022-10-14T10:43:57.456Z,18.20
2022-10-14T10:49:06.993Z,18.00
2022-10-14T10:54:22.205Z,17.30
2022-10-14T10:59:43.483Z,16.60
2022-10-14T11:04:55.143Z,16.30
2022-10-14T11:16:00.957Z,16.30
2022-10-14T11:21:13.444Z,16.80
2022-10-14T11:26:51.563Z,17.40
2022-10-14T11:32:08.929Z,17.60
2022-10-14T11:37:25.518Z,18.00
2022-10-14T11:42:39.557Z,18.20
2022-10-14T11:47:47.191Z,18.40
2022-10-14T11:52:55.691Z,18.40
2022-10-14T11:58:04.667Z,18.50
2022-10-14T12:03:16.528Z,18.80
2022-10-14T12:08:26.482Z,18.90
2022-10-14T12:13:37.566Z,18.80
2022-10-14T12:24:15.178Z,18.60
2022-10-14T12:29:21.857Z,18.10
2022-10-14T12:34:38.272Z,18.00
2022-10-14T12:39:43.935Z,17.60
2022-10-14T12:44:51.996Z,17.50
2022-10-14T12:55:28.646Z,17.30
2022-10-14T13:00:34.721Z,17.00
2022-10-14T13:05:41.295Z,16.90
2022-10-14T13:10:48.544Z,16.90
2022-10-14T13:15:53.022Z,16.80
2022-10-14T13:20:57.956Z,16.70
2022-10-14T13:26:16.122Z,17.00
2022-10-14T13:31:24.504Z,17.00
2022-10-14T13:36:35.045Z,16.90
2022-10-14T13:41:38.657Z,16.90
2022-10-14T13:46:45.284Z,16.60
2022-10-14T13:51:53.068Z,16.40
2022-10-14T14:02:27.937Z,16.20
2022-10-14T14:13:05.863Z,15.90
2022-10-14T14:18:33.913Z,15.90
2022-10-14T14:23:56.048Z,16.10
2022-10-14T14:28:59.470Z,16.30
2022-10-14T14:34:02.898Z,16.40
2022-10-14T14:39:07.544Z,16.40
2022-10-14T14:44:25.778Z,16.60
2022-10-14T14:49:33.031Z,16.60
2022-10-14T14:54:45.963Z,16.60
2022-10-14T14:59:57.031Z,16.40
2022-10-14T15:05:02.699Z,16.30
2022-10-14T15:10:23.609Z,16.20
2022-10-14T15:15:30.603Z,16.20
2022-10-14T15:20:36.353Z,16.10
2022-10-14T15:25:41.005Z,16.00
2022-10-14T15:30:55.723Z,15.70
2022-10-14T15:36:01.822Z,15.60
2022-10-14T15:41:06.681Z,15.50
2022-10-14T15:46:32.317Z,15.30
2022-10-14T15:51:35.606Z,15.30
2022-10-14T15:56:40.472Z,15.20
2022-10-14T16:01:46.232Z,15.00
2022-10-14T16:06:50.308Z,14.90
2022-10-14T16:11:58.174Z,14.80
2022-10-14T16:17:03.027Z,14.70
2022-10-14T16:22:06.295Z,14.60
2022-10-14T16:27:10.917Z,14.60
2022-10-14T16:32:14.979Z,14.50
2022-10-14T16:37:18.199Z,14.40
2022-10-14T16:42:22.855Z,14.30
2022-10-14T16:47:26.433Z,14.30
2022-10-14T16:52:29.915Z,14.20
2022-10-14T16:57:34.679Z,14.20
2022-10-14T17:02:37.898Z,14.10
2022-10-14T17:07:41.262Z,14.10
2022-10-14T17:12:47.071Z,14.10
2022-10-14T17:17:50.346Z,14.00
2022-10-14T17:22:53.712Z,14.00
2022-10-14T17:27:58.577Z,13.90
2022-10-14T17:33:02.038Z,14.00
2022-10-14T17:38:06.561Z,13.90
2022-10-14T17:43:11.269Z,13.90
2022-10-14T17:48:16.960Z,13.90
2022-10-14T17:53:20.693Z,13.90
2022-10-14T17:58:25.366Z,13.80
2022-10-14T18:08:58.474Z,13.70
2022-10-14T18:14:06.495Z,13.60
2022-10-14T18:19:12.605Z,13.60
2022-10-14T18:24:15.957Z,13.60
2022-10-14T18:29:20.785Z,13.60
2022-10-14T18:34:25.492Z,13.50
2022-10-14T18:39:28.727Z,13.50
2022-10-14T18:44:33.306Z,13.50
2022-10-14T18:49:39.929Z,13.40
2022-10-14T18:54:45.268Z,13.40
2022-10-14T18:59:52.688Z,13.40
2022-10-14T19:04:58.656Z,13.30
2022-10-14T19:10:01.967Z,13.30
2022-10-14T19:15:07.604Z,13.20
2022-10-14T19:20:11.061Z,13.20
2022-10-14T19:25:16.567Z,13.10
2022-10-14T19:30:21.508Z,13.00
2022-10-14T19:35:24.867Z,13.00
2022-10-14T19:40:28.184Z,13.00
2022-10-14T19:45:33.035Z,12.90
2022-10-14T19:50:36.478Z,12.90
2022-10-14T19:55:43.389Z,12.90
2022-10-14T20:00:48.099Z,12.90
2022-10-14T20:05:59.827Z,12.90
2022-10-14T20:11:04.054Z,12.80
2022-10-14T20:16:12.360Z,12.90
2022-10-14T20:21:17.263Z,12.90
2022-10-14T20:26:22.633Z,12.80
2022-10-14T20:31:27.574Z,12.90
2022-10-14T20:36:31.020Z,12.90
2022-10-14T20:41:35.142Z,12.90
2022-10-14T20:46:40.062Z,12.90
2022-10-14T20:51:43.458Z,12.90
2022-10-14T20:56:46.698Z,13.00
2022-10-14T21:01:51.366Z,13.00
2022-10-14T21:06:54.768Z,13.00
2022-10-14T21:11:58.307Z,13.10
2022-10-14T21:17:04.296Z,13.00
2022-10-14T21:22:07.841Z,13.00
2022-10-14T21:27:11.210Z,13.00
2022-10-14T21:32:15.849Z,13.00
2022-10-14T21:37:20.510Z,13.00
2022-10-14T21:42:24.024Z,13.00
2022-10-14T21:47:28.957Z,13.10
2022-10-14T21:52:35.030Z,13.10
2022-10-14T21:57:39.473Z,13.20
2022-10-14T22:02:44.107Z,13.20
2022-10-14T22:07:47.739Z,13.20
2022-10-14T22:12:50.979Z,13.20
2022-10-14T22:17:59.289Z,13.20
2022-10-14T22:23:02.669Z,13.20
2022-10-14T22:28:06.517Z,13.20
2022-10-14T22:33:11.163Z,13.20
2022-10-14T22:38:14.444Z,13.30
2022-10-14T22:43:18.138Z,13.40
2022-10-14T22:48:22.911Z,13.40
2022-10-14T22:53:26.506Z,13.40
2022-10-14T22:58:29.855Z,13.50
2022-10-14T23:03:38.903Z,13.50
2022-10-14T23:08:42.455Z,13.50
2022-10-14T23:14:06.172Z,13.50
2022-10-14T23:19:12.077Z,13.50
2022-10-14T23:24:15.439Z,13.50
2022-10-14T23:29:18.677Z,13.50
2022-10-14T23:34:23.409Z,13.60
2022-10-14T23:39:31.274Z,13.60
2022-10-14T23:44:36.469Z,13.60
2022-10-14T23:49:41.128Z,13.60
2022-10-14T23:54:44.447Z,13.60
2022-10-14T23:59:47.845Z,13.70
